sensor_id;sensor_type;location;lat;lon;timestamp;P1;durP1;ratioP1;P2;durP2;ratioP2
7571;SDS011;3827;49.928;8.548;2022-09-09T00:00:22;2.88;;;1.50;;
7571;SDS011;3827;49.928;8.548;2022-09-09T00:02:52;2.33;;;1.23;;
7571;SDS011;3827;49.928;8.548;2022-09-09T00:05:26;2.33;;;1.20;;
7571;SDS011;3827;49.928;8.548;2022-09-09T00:07:58;3.97;;;1.48;;
7571;SDS011;3827;49.928;8.548;2022-09-09T00:10:29;1.58;;;1.08;;
7571;SDS011;3827;49.928;8.548;2022-09-09T00:13:00;2.75;;;1.17;;
7571;SDS011;3827;49.928;8.548;2022-09-09T00:15:34;2.43;;;1.30;;
7571;SDS011;3827;49.928;8.548;2022-09-09T00:18:07;3.28;;;1.50;;
7571;SDS011;3827;49.928;8.548;2022-09-09T00:20:43;3.13;;;1.40;;
7571;SDS011;3827;49.928;8.548;2022-09-09T00:23:18;2.10;;;1.40;;
7571;SDS011;3827;49.928;8.548;2022-09-09T00:25:51;2.53;;;1.52;;
7571;SDS011;3827;49.928;8.548;2022-09-09T00:28:23;1.75;;;1.40;;
7571;SDS011;3827;49.928;8.548;2022-09-09T00:30:52;2.83;;;1.40;;
7571;SDS011;3827;49.928;8.548;2022-09-09T00:33:19;2.15;;;1.33;;
7571;SDS011;3827;49.928;8.548;2022-09-09T00:35:51;2.05;;;1.30;;
7571;SDS011;3827;49.928;8.548;2022-09-09T00:38:24;3.28;;;1.48;;
7571;SDS011;3827;49.928;8.548;2022-09-09T00:40:55;2.65;;;1.45;;
7571;SDS011;3827;49.928;8.548;2022-09-09T00:43:28;3.45;;;1.52;;
7571;SDS011;3827;49.928;8.548;2022-09-09T00:46:06;4.03;;;1.52;;
7571;SDS011;3827;49.928;8.548;2022-09-09T00:48:58;2.38;;;1.30;;
7571;SDS011;3827;49.928;8.548;2022-09-09T00:51:36;3.17;;;1.40;;
7571;SDS011;3827;49.928;8.548;2022-09-09T00:54:18;2.57;;;1.30;;
7571;SDS011;3827;49.928;8.548;2022-09-09T00:56:53;3.08;;;1.40;;
7571;SDS011;3827;49.928;8.548;2022-09-09T00:59:32;3.53;;;1.48;;
7571;SDS011;3827;49.928;8.548;2022-09-09T01:02:09;2.83;;;1.38;;
7571;SDS011;3827;49.928;8.548;2022-09-09T01:04:47;4.90;;;1.42;;
7571;SDS011;3827;49.928;8.548;2022-09-09T01:07:16;2.05;;;1.50;;
7571;SDS011;3827;49.928;8.548;2022-09-09T01:09:46;2.47;;;1.40;;
7571;SDS011;3827;49.928;8.548;2022-09-09T01:12:23;4.18;;;1.90;;
7571;SDS011;3827;49.928;8.548;2022-09-09T01:14:53;4.37;;;1.50;;
7571;SDS011;3827;49.928;8.548;2022-09-09T01:17:28;2.47;;;1.42;;
7571;SDS011;3827;49.928;8.548;2022-09-09T01:20:03;2.78;;;1.50;;
7571;SDS011;3827;49.928;8.548;2022-09-09T01:22:36;3.70;;;1.60;;
7571;SDS011;3827;49.928;8.548;2022-09-09T01:25:18;2.92;;;1.50;;
7571;SDS011;3827;49.928;8.548;2022-09-09T01:27:56;5.43;;;1.63;;
7571;SDS011;3827;49.928;8.548;2022-09-09T01:30:28;3.50;;;1.58;;
7571;SDS011;3827;49.928;8.548;2022-09-09T01:32:56;4.43;;;1.48;;
7571;SDS011;3827;49.928;8.548;2022-09-09T01:38:13;2.13;;;1.38;;
7571;SDS011;3827;49.928;8.548;2022-09-09T01:40:41;3.05;;;1.55;;
7571;SDS011;3827;49.928;8.548;2022-09-09T01:43:09;3.38;;;1.63;;
7571;SDS011;3827;49.928;8.548;2022-09-09T01:45:36;2.75;;;1.55;;
7571;SDS011;3827;49.928;8.548;2022-09-09T01:48:05;2.90;;;1.67;;
7571;SDS011;3827;49.928;8.548;2022-09-09T01:50:32;3.40;;;1.60;;
7571;SDS011;3827;49.928;8.548;2022-09-09T01:52:59;4.80;;;1.77;;
7571;SDS011;3827;49.928;8.548;2022-09-09T01:55:28;3.67;;;1.70;;
7571;SDS011;3827;49.928;8.548;2022-09-09T01:58:01;3.37;;;1.83;;
7571;SDS011;3827;49.928;8.548;2022-09-09T02:00:39;1.63;;;1.40;;
7571;SDS011;3827;49.928;8.548;2022-09-09T02:03:14;2.25;;;1.60;;
7571;SDS011;3827;49.928;8.548;2022-09-09T02:05:49;2.80;;;1.48;;
7571;SDS011;3827;49.928;8.548;2022-09-09T02:08:23;2.47;;;1.40;;
7571;SDS011;3827;49.928;8.548;2022-09-09T02:10:56;2.70;;;1.67;;
7571;SDS011;3827;49.928;8.548;2022-09-09T02:13:27;2.25;;;1.85;;
7571;SDS011;3827;49.928;8.548;2022-09-09T02:15:57;2.03;;;1.50;;
7571;SDS011;3827;49.928;8.548;2022-09-09T02:18:30;3.47;;;1.73;;
7571;SDS011;3827;49.928;8.548;2022-09-09T02:21:01;3.10;;;1.70;;
7571;SDS011;3827;49.928;8.548;2022-09-09T02:23:29;2.10;;;1.70;;
7571;SDS011;3827;49.928;8.548;2022-09-09T02:25:57;3.30;;;1.75;;
7571;SDS011;3827;49.928;8.548;2022-09-09T02:28:26;3.80;;;1.40;;
7571;SDS011;3827;49.928;8.548;2022-09-09T02:30:57;2.83;;;1.63;;
7571;SDS011;3827;49.928;8.548;2022-09-09T02:33:26;3.95;;;1.83;;
7571;SDS011;3827;49.928;8.548;2022-09-09T02:35:56;2.35;;;1.65;;
7571;SDS011;3827;49.928;8.548;2022-09-09T02:38:28;2.90;;;1.70;;
7571;SDS011;3827;49.928;8.548;2022-09-09T02:40:58;3.53;;;1.67;;
7571;SDS011;3827;49.928;8.548;2022-09-09T02:43:30;3.10;;;1.70;;
7571;SDS011;3827;49.928;8.548;2022-09-09T02:46:00;3.78;;;1.90;;
7571;SDS011;3827;49.928;8.548;2022-09-09T02:48:35;1.77;;;1.30;;
7571;SDS011;3827;49.928;8.548;2022-09-09T02:51:13;2.87;;;1.80;;
7571;SDS011;3827;49.928;8.548;2022-09-09T02:53:59;2.45;;;1.60;;
7571;SDS011;3827;49.928;8.548;2022-09-09T02:56:36;3.58;;;1.70;;
7571;SDS011;3827;49.928;8.548;2022-09-09T02:59:07;1.83;;;1.38;;
7571;SDS011;3827;49.928;8.548;2022-09-09T03:01:36;2.05;;;1.40;;
7571;SDS011;3827;49.928;8.548;2022-09-09T03:04:05;2.53;;;1.40;;
7571;SDS011;3827;49.928;8.548;2022-09-09T03:06:31;3.03;;;1.42;;
7571;SDS011;3827;49.928;8.548;2022-09-09T03:08:58;4.88;;;1.60;;
7571;SDS011;3827;49.928;8.548;2022-09-09T03:11:26;4.68;;;1.70;;
7571;SDS011;3827;49.928;8.548;2022-09-09T03:13:54;2.53;;;1.38;;
7571;SDS011;3827;49.928;8.548;2022-09-09T03:16:22;4.05;;;1.58;;
7571;SDS011;3827;49.928;8.548;2022-09-09T03:18:50;3.87;;;1.47;;
7571;SDS011;3827;49.928;8.548;2022-09-09T03:21:17;3.45;;;1.60;;
7571;SDS011;3827;49.928;8.548;2022-09-09T03:23:44;3.17;;;1.67;;
7571;SDS011;3827;49.928;8.548;2022-09-09T03:26:11;2.20;;;1.20;;
7571;SDS011;3827;49.928;8.548;2022-09-09T03:28:40;3.03;;;1.40;;
7571;SDS011;3827;49.928;8.548;2022-09-09T03:31:06;2.65;;;1.40;;
7571;SDS011;3827;49.928;8.548;2022-09-09T03:33:35;2.55;;;1.30;;
7571;SDS011;3827;49.928;8.548;2022-09-09T03:36:03;2.85;;;1.60;;
7571;SDS011;3827;49.928;8.548;2022-09-09T03:38:32;3.10;;;1.50;;
7571;SDS011;3827;49.928;8.548;2022-09-09T03:40:59;2.20;;;1.45;;
7571;SDS011;3827;49.928;8.548;2022-09-09T03:43:27;3.20;;;1.30;;
7571;SDS011;3827;49.928;8.548;2022-09-09T03:45:54;2.22;;;1.30;;
7571;SDS011;3827;49.928;8.548;2022-09-09T03:48:22;4.35;;;1.50;;
7571;SDS011;3827;49.928;8.548;2022-09-09T03:50:53;3.33;;;1.53;;
7571;SDS011;3827;49.928;8.548;2022-09-09T03:53:22;3.70;;;1.50;;
7571;SDS011;3827;49.928;8.548;2022-09-09T03:55:52;2.97;;;1.52;;
7571;SDS011;3827;49.928;8.548;2022-09-09T03:58:20;3.05;;;1.70;;
7571;SDS011;3827;49.928;8.548;2022-09-09T04:00:58;4.43;;;1.80;;
7571;SDS011;3827;49.928;8.548;2022-09-09T04:03:27;3.95;;;1.58;;
7571;SDS011;3827;49.928;8.548;2022-09-09T04:05:54;2.95;;;1.50;;
7571;SDS011;3827;49.928;8.548;2022-09-09T04:08:24;4.18;;;1.58;;
7571;SDS011;3827;49.928;8.548;2022-09-09T04:10:51;3.47;;;1.70;;
7571;SDS011;3827;49.928;8.548;2022-09-09T04:13:22;2.37;;;1.50;;
7571;SDS011;3827;49.928;8.548;2022-09-09T04:15:50;3.40;;;1.50;;
7571;SDS011;3827;49.928;8.548;2022-09-09T04:18:18;4.70;;;1.70;;
7571;SDS011;3827;49.928;8.548;2022-09-09T04:20:45;3.42;;;1.83;;
7571;SDS011;3827;49.928;8.548;2022-09-09T04:23:12;3.90;;;1.65;;
7571;SDS011;3827;49.928;8.548;2022-09-09T04:25:44;3.90;;;1.48;;
7571;SDS011;3827;49.928;8.548;2022-09-09T04:28:11;2.45;;;1.65;;
7571;SDS011;3827;49.928;8.548;2022-09-09T04:30:38;3.13;;;1.73;;
7571;SDS011;3827;49.928;8.548;2022-09-09T04:33:06;3.60;;;1.70;;
7571;SDS011;3827;49.928;8.548;2022-09-09T04:35:33;2.35;;;1.60;;
7571;SDS011;3827;49.928;8.548;2022-09-09T04:38:00;3.77;;;1.80;;
7571;SDS011;3827;49.928;8.548;2022-09-09T04:40:28;2.95;;;1.70;;
7571;SDS011;3827;49.928;8.548;2022-09-09T04:42:57;4.53;;;1.80;;
7571;SDS011;3827;49.928;8.548;2022-09-09T04:45:24;3.57;;;1.67;;
7571;SDS011;3827;49.928;8.548;2022-09-09T04:47:51;3.78;;;1.55;;
7571;SDS011;3827;49.928;8.548;2022-09-09T04:50:18;3.35;;;1.83;;
7571;SDS011;3827;49.928;8.548;2022-09-09T04:52:45;2.65;;;1.60;;
7571;SDS011;3827;49.928;8.548;2022-09-09T04:55:12;3.55;;;1.60;;
7571;SDS011;3827;49.928;8.548;2022-09-09T04:57:38;5.05;;;1.83;;
7571;SDS011;3827;49.928;8.548;2022-09-09T05:00:08;3.42;;;1.60;;
7571;SDS011;3827;49.928;8.548;2022-09-09T05:02:36;3.83;;;1.70;;
7571;SDS011;3827;49.928;8.548;2022-09-09T05:05:04;5.60;;;2.17;;
7571;SDS011;3827;49.928;8.548;2022-09-09T05:07:31;4.65;;;1.80;;
7571;SDS011;3827;49.928;8.548;2022-09-09T05:09:57;6.33;;;1.93;;
7571;SDS011;3827;49.928;8.548;2022-09-09T05:12:24;4.25;;;2.00;;
7571;SDS011;3827;49.928;8.548;2022-09-09T05:14:51;4.32;;;1.70;;
7571;SDS011;3827;49.928;8.548;2022-09-09T05:17:20;3.63;;;1.65;;
7571;SDS011;3827;49.928;8.548;2022-09-09T05:19:46;5.30;;;1.70;;
7571;SDS011;3827;49.928;8.548;2022-09-09T05:22:17;6.72;;;1.80;;
7571;SDS011;3827;49.928;8.548;2022-09-09T05:24:45;2.72;;;1.58;;
7571;SDS011;3827;49.928;8.548;2022-09-09T05:27:12;4.25;;;1.73;;
7571;SDS011;3827;49.928;8.548;2022-09-09T05:29:39;4.30;;;1.67;;
7571;SDS011;3827;49.928;8.548;2022-09-09T05:32:08;2.97;;;1.65;;
7571;SDS011;3827;49.928;8.548;2022-09-09T05:34:36;5.65;;;1.83;;
7571;SDS011;3827;49.928;8.548;2022-09-09T05:37:04;3.17;;;1.20;;
7571;SDS011;3827;49.928;8.548;2022-09-09T05:39:32;6.78;;;1.90;;
7571;SDS011;3827;49.928;8.548;2022-09-09T05:42:01;5.85;;;1.60;;
7571;SDS011;3827;49.928;8.548;2022-09-09T05:44:29;3.47;;;1.67;;
7571;SDS011;3827;49.928;8.548;2022-09-09T05:46:57;5.05;;;1.50;;
7571;SDS011;3827;49.928;8.548;2022-09-09T05:49:23;3.58;;;1.50;;
7571;SDS011;3827;49.928;8.548;2022-09-09T05:51:52;2.77;;;1.40;;
7571;SDS011;3827;49.928;8.548;2022-09-09T05:54:18;4.95;;;1.40;;
7571;SDS011;3827;49.928;8.548;2022-09-09T05:56:45;2.35;;;1.20;;
7571;SDS011;3827;49.928;8.548;2022-09-09T05:59:14;4.03;;;1.42;;
7571;SDS011;3827;49.928;8.548;2022-09-09T06:01:41;3.63;;;1.20;;
7571;SDS011;3827;49.928;8.548;2022-09-09T06:04:08;2.13;;;1.15;;
7571;SDS011;3827;49.928;8.548;2022-09-09T06:06:35;2.23;;;1.40;;
7571;SDS011;3827;49.928;8.548;2022-09-09T06:09:06;2.70;;;1.40;;
7571;SDS011;3827;49.928;8.548;2022-09-09T06:11:35;3.63;;;1.60;;
7571;SDS011;3827;49.928;8.548;2022-09-09T06:14:04;4.72;;;1.40;;
7571;SDS011;3827;49.928;8.548;2022-09-09T06:16:31;1.70;;;1.20;;
7571;SDS011;3827;49.928;8.548;2022-09-09T06:18:59;3.63;;;1.17;;
7571;SDS011;3827;49.928;8.548;2022-09-09T06:21:28;3.83;;;1.50;;
7571;SDS011;3827;49.928;8.548;2022-09-09T06:23:57;3.92;;;1.20;;
7571;SDS011;3827;49.928;8.548;2022-09-09T06:26:27;3.58;;;1.35;;
7571;SDS011;3827;49.928;8.548;2022-09-09T06:28:55;2.58;;;1.10;;
7571;SDS011;3827;49.928;8.548;2022-09-09T06:31:24;4.78;;;1.20;;
7571;SDS011;3827;49.928;8.548;2022-09-09T06:33:55;2.65;;;1.20;;
7571;SDS011;3827;49.928;8.548;2022-09-09T06:36:23;1.77;;;1.05;;
7571;SDS011;3827;49.928;8.548;2022-09-09T06:38:51;2.05;;;1.08;;
7571;SDS011;3827;49.928;8.548;2022-09-09T06:41:18;2.25;;;1.00;;
7571;SDS011;3827;49.928;8.548;2022-09-09T06:43:48;5.05;;;1.40;;
7571;SDS011;3827;49.928;8.548;2022-09-09T06:46:16;2.10;;;0.90;;
7571;SDS011;3827;49.928;8.548;2022-09-09T06:48:44;3.30;;;1.30;;
7571;SDS011;3827;49.928;8.548;2022-09-09T06:51:12;6.63;;;1.33;;
7571;SDS011;3827;49.928;8.548;2022-09-09T06:53:40;4.47;;;1.20;;
7571;SDS011;3827;49.928;8.548;2022-09-09T06:56:19;3.80;;;0.98;;
7571;SDS011;3827;49.928;8.548;2022-09-09T06:58:49;2.45;;;1.30;;
7571;SDS011;3827;49.928;8.548;2022-09-09T07:01:17;2.72;;;1.05;;
7571;SDS011;3827;49.928;8.548;2022-09-09T07:03:46;4.50;;;0.98;;
7571;SDS011;3827;49.928;8.548;2022-09-09T07:06:15;2.08;;;1.00;;
7571;SDS011;3827;49.928;8.548;2022-09-09T07:08:44;2.83;;;1.10;;
7571;SDS011;3827;49.928;8.548;2022-09-09T07:11:15;2.88;;;1.20;;
7571;SDS011;3827;49.928;8.548;2022-09-09T07:13:42;3.00;;;1.35;;
7571;SDS011;3827;49.928;8.548;2022-09-09T07:16:11;3.63;;;1.20;;
7571;SDS011;3827;49.928;8.548;2022-09-09T07:18:39;3.03;;;1.08;;
7571;SDS011;3827;49.928;8.548;2022-09-09T07:21:07;3.35;;;1.15;;
7571;SDS011;3827;49.928;8.548;2022-09-09T07:23:35;2.58;;;1.00;;
7571;SDS011;3827;49.928;8.548;2022-09-09T07:26:02;5.05;;;1.45;;
7571;SDS011;3827;49.928;8.548;2022-09-09T07:28:29;2.92;;;1.10;;
7571;SDS011;3827;49.928;8.548;2022-09-09T07:30:56;2.50;;;1.20;;
7571;SDS011;3827;49.928;8.548;2022-09-09T07:33:27;4.10;;;1.33;;
7571;SDS011;3827;49.928;8.548;2022-09-09T07:36:01;4.30;;;1.10;;
7571;SDS011;3827;49.928;8.548;2022-09-09T07:38:29;5.25;;;1.60;;
7571;SDS011;3827;49.928;8.548;2022-09-09T07:41:02;3.97;;;1.40;;
7571;SDS011;3827;49.928;8.548;2022-09-09T07:43:30;3.90;;;1.20;;
7571;SDS011;3827;49.928;8.548;2022-09-09T07:45:57;4.28;;;1.20;;
7571;SDS011;3827;49.928;8.548;2022-09-09T07:48:24;7.17;;;1.43;;
7571;SDS011;3827;49.928;8.548;2022-09-09T07:50:52;4.95;;;1.25;;
7571;SDS011;3827;49.928;8.548;2022-09-09T07:53:28;4.25;;;1.27;;
7571;SDS011;3827;49.928;8.548;2022-09-09T07:55:57;4.05;;;1.13;;
7571;SDS011;3827;49.928;8.548;2022-09-09T07:58:29;3.70;;;1.13;;
7571;SDS011;3827;49.928;8.548;2022-09-09T08:00:55;4.32;;;1.20;;
7571;SDS011;3827;49.928;8.548;2022-09-09T08:03:22;4.00;;;1.38;;
7571;SDS011;3827;49.928;8.548;2022-09-09T08:05:49;2.33;;;1.10;;
7571;SDS011;3827;49.928;8.548;2022-09-09T08:08:17;4.33;;;1.30;;
7571;SDS011;3827;49.928;8.548;2022-09-09T08:10:44;3.92;;;1.27;;
7571;SDS011;3827;49.928;8.548;2022-09-09T08:13:11;2.47;;;0.90;;
7571;SDS011;3827;49.928;8.548;2022-09-09T08:15:39;3.17;;;1.00;;
7571;SDS011;3827;49.928;8.548;2022-09-09T08:18:06;2.30;;;1.20;;
7571;SDS011;3827;49.928;8.548;2022-09-09T08:20:35;3.20;;;1.08;;
7571;SDS011;3827;49.928;8.548;2022-09-09T08:23:02;3.42;;;1.10;;
7571;SDS011;3827;49.928;8.548;2022-09-09T08:25:31;3.95;;;1.35;;
7571;SDS011;3827;49.928;8.548;2022-09-09T08:27:59;3.15;;;0.98;;
7571;SDS011;3827;49.928;8.548;2022-09-09T08:30:27;3.88;;;1.40;;
7571;SDS011;3827;49.928;8.548;2022-09-09T08:32:54;5.33;;;1.40;;
7571;SDS011;3827;49.928;8.548;2022-09-09T08:35:21;3.80;;;1.10;;
7571;SDS011;3827;49.928;8.548;2022-09-09T08:37:48;3.70;;;1.10;;
7571;SDS011;3827;49.928;8.548;2022-09-09T08:40:21;3.97;;;1.50;;
7571;SDS011;3827;49.928;8.548;2022-09-09T08:42:54;4.18;;;1.38;;
7571;SDS011;3827;49.928;8.548;2022-09-09T08:45:28;3.73;;;1.40;;
7571;SDS011;3827;49.928;8.548;2022-09-09T08:48:09;3.67;;;1.50;;
7571;SDS011;3827;49.928;8.548;2022-09-09T08:50:44;2.28;;;1.30;;
7571;SDS011;3827;49.928;8.548;2022-09-09T08:53:14;4.45;;;1.42;;
7571;SDS011;3827;49.928;8.548;2022-09-09T08:55:45;4.05;;;1.20;;
7571;SDS011;3827;49.928;8.548;2022-09-09T08:58:15;2.92;;;1.50;;
7571;SDS011;3827;49.928;8.548;2022-09-09T09:00:49;3.75;;;1.30;;
7571;SDS011;3827;49.928;8.548;2022-09-09T09:03:28;4.82;;;1.25;;
7571;SDS011;3827;49.928;8.548;2022-09-09T09:06:03;4.45;;;1.48;;
7571;SDS011;3827;49.928;8.548;2022-09-09T09:08:36;3.60;;;1.00;;
7571;SDS011;3827;49.928;8.548;2022-09-09T09:11:10;5.45;;;1.40;;
7571;SDS011;3827;49.928;8.548;2022-09-09T09:13:39;4.38;;;1.20;;
7571;SDS011;3827;49.928;8.548;2022-09-09T09:16:13;4.00;;;1.30;;
7571;SDS011;3827;49.928;8.548;2022-09-09T09:18:48;2.28;;;1.10;;
7571;SDS011;3827;49.928;8.548;2022-09-09T09:21:16;3.72;;;1.13;;
7571;SDS011;3827;49.928;8.548;2022-09-09T09:23:51;3.63;;;1.33;;
7571;SDS011;3827;49.928;8.548;2022-09-09T09:26:22;2.93;;;1.30;;
7571;SDS011;3827;49.928;8.548;2022-09-09T09:28:54;3.25;;;1.10;;
7571;SDS011;3827;49.928;8.548;2022-09-09T09:31:22;4.63;;;1.13;;
7571;SDS011;3827;49.928;8.548;2022-09-09T09:33:52;3.03;;;1.17;;
7571;SDS011;3827;49.928;8.548;2022-09-09T09:36:20;4.93;;;1.60;;
7571;SDS011;3827;49.928;8.548;2022-09-09T09:38:54;4.03;;;1.33;;
7571;SDS011;3827;49.928;8.548;2022-09-09T09:41:31;4.05;;;1.13;;
7571;SDS011;3827;49.928;8.548;2022-09-09T09:44:03;3.90;;;1.50;;
7571;SDS011;3827;49.928;8.548;2022-09-09T09:46:30;5.00;;;1.20;;
7571;SDS011;3827;49.928;8.548;2022-09-09T09:48:58;4.35;;;1.27;;
7571;SDS011;3827;49.928;8.548;2022-09-09T09:51:26;3.15;;;1.15;;
7571;SDS011;3827;49.928;8.548;2022-09-09T09:53:54;4.38;;;1.30;;
7571;SDS011;3827;49.928;8.548;2022-09-09T09:56:41;4.72;;;1.48;;
7571;SDS011;3827;49.928;8.548;2022-09-09T09:59:20;3.73;;;1.13;;
7571;SDS011;3827;49.928;8.548;2022-09-09T10:01:49;5.88;;;1.35;;
7571;SDS011;3827;49.928;8.548;2022-09-09T10:04:18;3.73;;;1.10;;
7571;SDS011;3827;49.928;8.548;2022-09-09T10:06:48;3.40;;;1.30;;
7571;SDS011;3827;49.928;8.548;2022-09-09T10:09:20;3.45;;;1.23;;
7571;SDS011;3827;49.928;8.548;2022-09-09T10:11:53;5.20;;;1.30;;
7571;SDS011;3827;49.928;8.548;2022-09-09T10:14:30;2.97;;;0.95;;
7571;SDS011;3827;49.928;8.548;2022-09-09T10:17:08;5.38;;;1.30;;
7571;SDS011;3827;49.928;8.548;2022-09-09T10:19:47;3.70;;;1.10;;
7571;SDS011;3827;49.928;8.548;2022-09-09T10:22:27;4.90;;;1.20;;
7571;SDS011;3827;49.928;8.548;2022-09-09T10:25:07;4.03;;;1.00;;
7571;SDS011;3827;49.928;8.548;2022-09-09T10:27:49;3.10;;;1.03;;
7571;SDS011;3827;49.928;8.548;2022-09-09T10:30:33;2.30;;;1.25;;
7571;SDS011;3827;49.928;8.548;2022-09-09T10:33:16;2.83;;;1.27;;
7571;SDS011;3827;49.928;8.548;2022-09-09T10:35:54;2.92;;;1.10;;
7571;SDS011;3827;49.928;8.548;2022-09-09T10:38:32;3.10;;;1.17;;
7571;SDS011;3827;49.928;8.548;2022-09-09T10:41:19;4.40;;;1.20;;
7571;SDS011;3827;49.928;8.548;2022-09-09T10:47:00;3.30;;;1.10;;
7571;SDS011;3827;49.928;8.548;2022-09-09T10:49:59;2.92;;;1.00;;
7571;SDS011;3827;49.928;8.548;2022-09-09T10:52:38;4.85;;;1.10;;
7571;SDS011;3827;49.928;8.548;2022-09-09T10:55:17;2.22;;;0.80;;
7571;SDS011;3827;49.928;8.548;2022-09-09T10:57:46;3.13;;;1.17;;
7571;SDS011;3827;49.928;8.548;2022-09-09T11:00:15;2.40;;;0.90;;
7571;SDS011;3827;49.928;8.548;2022-09-09T11:02:47;1.67;;;0.77;;
7571;SDS011;3827;49.928;8.548;2022-09-09T11:05:17;3.87;;;1.20;;
7571;SDS011;3827;49.928;8.548;2022-09-09T11:07:48;2.13;;;1.00;;
7571;SDS011;3827;49.928;8.548;2022-09-09T11:10:23;2.97;;;0.98;;
7571;SDS011;3827;49.928;8.548;2022-09-09T11:12:57;3.20;;;1.00;;
7571;SDS011;3827;49.928;8.548;2022-09-09T11:15:31;4.27;;;1.00;;
7571;SDS011;3827;49.928;8.548;2022-09-09T11:18:07;3.35;;;1.20;;
7571;SDS011;3827;49.928;8.548;2022-09-09T11:20:40;3.72;;;1.00;;
7571;SDS011;3827;49.928;8.548;2022-09-09T11:23:09;2.45;;;0.93;;
7571;SDS011;3827;49.928;8.548;2022-09-09T11:25:39;3.30;;;1.20;;
7571;SDS011;3827;49.928;8.548;2022-09-09T11:28:17;2.42;;;0.90;;
7571;SDS011;3827;49.928;8.548;2022-09-09T11:31:02;3.33;;;1.10;;
7571;SDS011;3827;49.928;8.548;2022-09-09T11:33:48;1.85;;;0.90;;
7571;SDS011;3827;49.928;8.548;2022-09-09T11:36:28;3.17;;;1.17;;
7571;SDS011;3827;49.928;8.548;2022-09-09T11:39:19;3.67;;;1.10;;
7571;SDS011;3827;49.928;8.548;2022-09-09T11:42:05;2.75;;;1.00;;
7571;SDS011;3827;49.928;8.548;2022-09-09T11:44:34;3.10;;;1.20;;
7571;SDS011;3827;49.928;8.548;2022-09-09T11:47:01;4.70;;;1.25;;
7571;SDS011;3827;49.928;8.548;2022-09-09T11:49:29;3.73;;;1.10;;
7571;SDS011;3827;49.928;8.548;2022-09-09T11:52:10;3.40;;;1.20;;
7571;SDS011;3827;49.928;8.548;2022-09-09T11:54:44;3.03;;;0.95;;
7571;SDS011;3827;49.928;8.548;2022-09-09T11:57:17;3.65;;;1.10;;
7571;SDS011;3827;49.928;8.548;2022-09-09T11:59:51;4.22;;;1.08;;
7571;SDS011;3827;49.928;8.548;2022-09-09T12:02:21;3.22;;;1.05;;
7571;SDS011;3827;49.928;8.548;2022-09-09T12:04:55;2.95;;;1.10;;
7571;SDS011;3827;49.928;8.548;2022-09-09T12:07:31;3.22;;;1.10;;
7571;SDS011;3827;49.928;8.548;2022-09-09T12:10:02;3.35;;;1.10;;
7571;SDS011;3827;49.928;8.548;2022-09-09T12:12:32;3.78;;;1.17;;
7571;SDS011;3827;49.928;8.548;2022-09-09T12:17:52;4.90;;;0.97;;
7571;SDS011;3827;49.928;8.548;2022-09-09T12:20:23;2.78;;;1.00;;
7571;SDS011;3827;49.928;8.548;2022-09-09T12:23:00;3.28;;;1.10;;
7571;SDS011;3827;49.928;8.548;2022-09-09T12:25:47;4.15;;;1.08;;
7571;SDS011;3827;49.928;8.548;2022-09-09T12:28:22;3.35;;;1.00;;
7571;SDS011;3827;49.928;8.548;2022-09-09T12:30:55;2.78;;;0.95;;
7571;SDS011;3827;49.928;8.548;2022-09-09T12:33:33;2.85;;;1.02;;
7571;SDS011;3827;49.928;8.548;2022-09-09T12:36:02;1.73;;;0.80;;
7571;SDS011;3827;49.928;8.548;2022-09-09T12:38:32;2.53;;;0.70;;
7571;SDS011;3827;49.928;8.548;2022-09-09T12:41:02;1.98;;;0.57;;
7571;SDS011;3827;49.928;8.548;2022-09-09T12:43:29;2.43;;;0.77;;
7571;SDS011;3827;49.928;8.548;2022-09-09T12:45:57;2.87;;;0.73;;
7571;SDS011;3827;49.928;8.548;2022-09-09T12:48:30;1.02;;;0.50;;
7571;SDS011;3827;49.928;8.548;2022-09-09T12:51:00;2.83;;;0.88;;
7571;SDS011;3827;49.928;8.548;2022-09-09T12:53:32;1.13;;;0.30;;
7571;SDS011;3827;49.928;8.548;2022-09-09T12:56:01;0.80;;;0.20;;
7571;SDS011;3827;49.928;8.548;2022-09-09T12:58:32;0.23;;;0.20;;
7571;SDS011;3827;49.928;8.548;2022-09-09T13:01:00;1.20;;;0.25;;
7571;SDS011;3827;49.928;8.548;2022-09-09T13:03:30;1.37;;;0.40;;
7571;SDS011;3827;49.928;8.548;2022-09-09T13:05:58;0.80;;;0.40;;
7571;SDS011;3827;49.928;8.548;2022-09-09T13:08:37;0.52;;;0.20;;
7571;SDS011;3827;49.928;8.548;2022-09-09T13:11:07;1.10;;;0.32;;
7571;SDS011;3827;49.928;8.548;2022-09-09T13:13:38;0.47;;;0.22;;
7571;SDS011;3827;49.928;8.548;2022-09-09T13:16:06;0.57;;;0.10;;
7571;SDS011;3827;49.928;8.548;2022-09-09T13:18:47;1.17;;;0.28;;
7571;SDS011;3827;49.928;8.548;2022-09-09T13:21:14;0.68;;;0.30;;
7571;SDS011;3827;49.928;8.548;2022-09-09T13:23:42;0.80;;;0.40;;
7571;SDS011;3827;49.928;8.548;2022-09-09T13:26:22;1.58;;;0.35;;
7571;SDS011;3827;49.928;8.548;2022-09-09T13:28:50;2.22;;;0.40;;
7571;SDS011;3827;49.928;8.548;2022-09-09T13:31:19;0.93;;;0.30;;
7571;SDS011;3827;49.928;8.548;2022-09-09T13:33:48;1.20;;;0.40;;
7571;SDS011;3827;49.928;8.548;2022-09-09T13:36:15;1.63;;;0.47;;
7571;SDS011;3827;49.928;8.548;2022-09-09T13:38:54;0.80;;;0.40;;
7571;SDS011;3827;49.928;8.548;2022-09-09T13:41:25;1.33;;;0.50;;
7571;SDS011;3827;49.928;8.548;2022-09-09T13:43:56;1.75;;;0.47;;
7571;SDS011;3827;49.928;8.548;2022-09-09T13:46:29;0.93;;;0.45;;
7571;SDS011;3827;49.928;8.548;2022-09-09T13:49:00;2.83;;;0.47;;
7571;SDS011;3827;49.928;8.548;2022-09-09T13:51:30;1.02;;;0.38;;
7571;SDS011;3827;49.928;8.548;2022-09-09T13:54:03;2.47;;;0.40;;
7571;SDS011;3827;49.928;8.548;2022-09-09T13:56:31;1.83;;;0.43;;
7571;SDS011;3827;49.928;8.548;2022-09-09T13:58:58;0.98;;;0.40;;
7571;SDS011;3827;49.928;8.548;2022-09-09T14:01:25;2.13;;;0.70;;
7571;SDS011;3827;49.928;8.548;2022-09-09T14:03:52;0.88;;;0.50;;
7571;SDS011;3827;49.928;8.548;2022-09-09T14:06:19;0.60;;;0.40;;
7571;SDS011;3827;49.928;8.548;2022-09-09T14:08:47;1.13;;;0.23;;
7571;SDS011;3827;49.928;8.548;2022-09-09T14:11:16;0.70;;;0.50;;
7571;SDS011;3827;49.928;8.548;2022-09-09T14:13:46;1.00;;;0.40;;
7571;SDS011;3827;49.928;8.548;2022-09-09T14:16:14;0.50;;;0.30;;
7571;SDS011;3827;49.928;8.548;2022-09-09T14:18:42;1.52;;;0.30;;
7571;SDS011;3827;49.928;8.548;2022-09-09T14:21:09;0.68;;;0.30;;
7571;SDS011;3827;49.928;8.548;2022-09-09T14:23:36;1.40;;;0.20;;
7571;SDS011;3827;49.928;8.548;2022-09-09T14:26:04;0.98;;;0.30;;
7571;SDS011;3827;49.928;8.548;2022-09-09T14:28:32;0.32;;;0.30;;
7571;SDS011;3827;49.928;8.548;2022-09-09T14:31:00;0.57;;;0.35;;
7571;SDS011;3827;49.928;8.548;2022-09-09T14:33:27;2.15;;;0.60;;
7571;SDS011;3827;49.928;8.548;2022-09-09T14:35:55;1.42;;;0.40;;
7571;SDS011;3827;49.928;8.548;2022-09-09T14:38:23;1.65;;;0.55;;
7571;SDS011;3827;49.928;8.548;2022-09-09T14:40:50;2.00;;;0.40;;
7571;SDS011;3827;49.928;8.548;2022-09-09T14:43:17;2.42;;;0.70;;
7571;SDS011;3827;49.928;8.548;2022-09-09T14:45:47;0.90;;;0.50;;
7571;SDS011;3827;49.928;8.548;2022-09-09T14:48:16;3.50;;;0.60;;
7571;SDS011;3827;49.928;8.548;2022-09-09T14:50:44;0.90;;;0.40;;
7571;SDS011;3827;49.928;8.548;2022-09-09T14:53:11;2.67;;;0.70;;
7571;SDS011;3827;49.928;8.548;2022-09-09T14:55:37;1.80;;;0.70;;
7571;SDS011;3827;49.928;8.548;2022-09-09T14:58:05;2.88;;;0.80;;
7571;SDS011;3827;49.928;8.548;2022-09-09T15:00:32;1.10;;;0.43;;
7571;SDS011;3827;49.928;8.548;2022-09-09T15:03:02;2.55;;;0.77;;
7571;SDS011;3827;49.928;8.548;2022-09-09T15:05:29;1.10;;;0.50;;
7571;SDS011;3827;49.928;8.548;2022-09-09T15:07:56;2.08;;;0.60;;
7571;SDS011;3827;49.928;8.548;2022-09-09T15:10:24;4.28;;;0.70;;
7571;SDS011;3827;49.928;8.548;2022-09-09T15:12:51;2.78;;;0.77;;
7571;SDS011;3827;49.928;8.548;2022-09-09T15:15:18;2.17;;;0.77;;
7571;SDS011;3827;49.928;8.548;2022-09-09T15:17:45;2.25;;;0.70;;
7571;SDS011;3827;49.928;8.548;2022-09-09T15:20:13;3.75;;;0.77;;
7571;SDS011;3827;49.928;8.548;2022-09-09T15:22:41;1.35;;;0.60;;
7571;SDS011;3827;49.928;8.548;2022-09-09T15:25:08;1.95;;;0.80;;
7571;SDS011;3827;49.928;8.548;2022-09-09T15:27:35;2.53;;;0.75;;
7571;SDS011;3827;49.928;8.548;2022-09-09T15:30:04;1.55;;;0.73;;
7571;SDS011;3827;49.928;8.548;2022-09-09T15:32:31;1.48;;;0.70;;
7571;SDS011;3827;49.928;8.548;2022-09-09T15:35:00;2.25;;;0.70;;
7571;SDS011;3827;49.928;8.548;2022-09-09T15:37:28;1.50;;;0.60;;
7571;SDS011;3827;49.928;8.548;2022-09-09T15:39:55;2.70;;;0.80;;
7571;SDS011;3827;49.928;8.548;2022-09-09T15:42:23;2.30;;;0.80;;
7571;SDS011;3827;49.928;8.548;2022-09-09T15:44:52;1.73;;;0.80;;